sensor_id;sensor_type;location;lat;lon;timestamp;pressure;altitude;pressure_sealevel;temperature;humidity
23229;BME280;11783;50.350;6.576;2023-05-23T00:00:54;96342.28;;;16.59;86.90
23229;BME280;11783;50.350;6.576;2023-05-23T00:03:20;96351.41;;;16.58;86.96
23229;BME280;11783;50.350;6.576;2023-05-23T00:05:48;96350.09;;;16.50;87.34
23229;BME280;11783;50.350;6.576;2023-05-23T00:08:14;96347.16;;;16.47;87.28
23229;BME280;11783;50.350;6.576;2023-05-23T00:10:40;96349.31;;;16.45;87.59
23229;BME280;11783;50.350;6.576;2023-05-23T00:13:05;96348.81;;;16.43;87.31
23229;BME280;11783;50.350;6.576;2023-05-23T00:15:34;96346.97;;;16.38;87.47
23229;BME280;11783;50.350;6.576;2023-05-23T00:18:01;96356.59;;;16.39;87.88
23229;BME280;11783;50.350;6.576;2023-05-23T00:20:27;96352.31;;;16.38;87.68
23229;BME280;11783;50.350;6.576;2023-05-23T00:22:53;96355.53;;;16.35;87.46
23229;BME280;11783;50.350;6.576;2023-05-23T00:25:23;96359.56;;;16.32;87.69
23229;BME280;11783;50.350;6.576;2023-05-23T00:27:49;96359.31;;;16.29;87.73
23229;BME280;11783;50.350;6.576;2023-05-23T00:30:14;96361.78;;;16.20;88.43
23229;BME280;11783;50.350;6.576;2023-05-23T00:32:40;96375.72;;;16.17;88.61
23229;BME280;11783;50.350;6.576;2023-05-23T00:35:06;96363.44;;;16.11;89.17
23229;BME280;11783;50.350;6.576;2023-05-23T00:37:31;96360.22;;;16.09;89.62
23229;BME280;11783;50.350;6.576;2023-05-23T00:39:58;96362.34;;;16.12;89.82
23229;BME280;11783;50.350;6.576;2023-05-23T00:42:23;96365.81;;;16.13;89.89
23229;BME280;11783;50.350;6.576;2023-05-23T00:44:49;96363.16;;;16.13;90.12
23229;BME280;11783;50.350;6.576;2023-05-23T00:47:14;96364.22;;;16.12;90.60
23229;BME280;11783;50.350;6.576;2023-05-23T00:49:39;96368.25;;;16.09;91.37
23229;BME280;11783;50.350;6.576;2023-05-23T00:52:05;96368.53;;;16.08;91.88
23229;BME280;11783;50.350;6.576;2023-05-23T00:54:31;96370.97;;;16.04;91.99
23229;BME280;11783;50.350;6.576;2023-05-23T00:56:58;96370.44;;;16.02;92.17
23229;BME280;11783;50.350;6.576;2023-05-23T00:59:24;96368.56;;;15.97;92.09
23229;BME280;11783;50.350;6.576;2023-05-23T01:01:50;96369.38;;;15.98;92.77
23229;BME280;11783;50.350;6.576;2023-05-23T01:04:17;96370.97;;;15.99;92.75
23229;BME280;11783;50.350;6.576;2023-05-23T01:06:44;96366.97;;;16.01;92.94
23229;BME280;11783;50.350;6.576;2023-05-23T01:09:12;96369.38;;;16.03;93.29
23229;BME280;11783;50.350;6.576;2023-05-23T01:12:16;96368.56;;;16.02;93.49
23229;BME280;11783;50.350;6.576;2023-05-23T01:17:31;96363.69;;;16.10;92.89
23229;BME280;11783;50.350;6.576;2023-05-23T01:20:08;96353.25;;;16.08;93.37
23229;BME280;11783;50.350;6.576;2023-05-23T01:28:30;96357.25;;;16.11;93.20
23229;BME280;11783;50.350;6.576;2023-05-23T01:30:57;96365.59;;;16.09;92.74
23229;BME280;11783;50.350;6.576;2023-05-23T01:33:24;96356.22;;;16.07;92.78
23229;BME280;11783;50.350;6.576;2023-05-23T01:35:50;96346.81;;;16.09;92.47
23229;BME280;11783;50.350;6.576;2023-05-23T01:41:45;96351.34;;;16.14;92.71
23229;BME280;11783;50.350;6.576;2023-05-23T01:44:10;96345.47;;;16.12;92.39
23229;BME280;11783;50.350;6.576;2023-05-23T01:46:38;96353.50;;;16.12;92.09
23229;BME280;11783;50.350;6.576;2023-05-23T01:49:07;96349.75;;;16.13;92.43
23229;BME280;11783;50.350;6.576;2023-05-23T01:51:34;96346.78;;;16.14;92.01
23229;BME280;11783;50.350;6.576;2023-05-23T01:54:00;96341.97;;;16.11;91.61
23229;BME280;11783;50.350;6.576;2023-05-23T01:56:26;96341.19;;;16.11;90.96
23229;BME280;11783;50.350;6.576;2023-05-23T01:58:53;96337.16;;;16.08;90.82
23229;BME280;11783;50.350;6.576;2023-05-23T02:01:18;96343.63;;;16.02;90.39
23229;BME280;11783;50.350;6.576;2023-05-23T02:03:44;96353.03;;;15.94;90.31
23229;BME280;11783;50.350;6.576;2023-05-23T02:06:10;96354.38;;;15.92;90.39
23229;BME280;11783;50.350;6.576;2023-05-23T02:08:36;96354.38;;;15.92;90.89
23229;BME280;11783;50.350;6.576;2023-05-23T02:11:01;96354.38;;;15.92;91.56
23229;BME280;11783;50.350;6.576;2023-05-23T02:13:27;96357.34;;;15.90;91.40
23229;BME280;11783;50.350;6.576;2023-05-23T02:15:52;96359.22;;;15.90;91.89
23229;BME280;11783;50.350;6.576;2023-05-23T02:18:19;96352.81;;;15.86;92.15
23229;BME280;11783;50.350;6.576;2023-05-23T02:20:44;96360.56;;;15.87;92.40
23229;BME280;11783;50.350;6.576;2023-05-23T02:23:10;96359.78;;;15.82;92.79
23229;BME280;11783;50.350;6.576;2023-05-23T02:25:35;96354.16;;;15.83;92.63
23229;BME280;11783;50.350;6.576;2023-05-23T02:28:00;96361.41;;;15.83;92.89
23229;BME280;11783;50.350;6.576;2023-05-23T02:30:26;96356.03;;;15.83;92.61
23229;BME280;11783;50.350;6.576;2023-05-23T02:32:51;96366.75;;;15.83;92.44
23229;BME280;11783;50.350;6.576;2023-05-23T02:35:17;96363.53;;;15.86;92.63
23229;BME280;11783;50.350;6.576;2023-05-23T02:37:42;96362.47;;;15.82;92.76
23229;BME280;11783;50.350;6.576;2023-05-23T02:40:08;96361.91;;;15.80;93.68
23229;BME280;11783;50.350;6.576;2023-05-23T02:42:34;96374.53;;;15.84;93.39
23229;BME280;11783;50.350;6.576;2023-05-23T02:44:59;96378.28;;;15.83;93.94
23229;BME280;11783;50.350;6.576;2023-05-23T02:47:25;96371.59;;;15.81;94.06
23229;BME280;11783;50.350;6.576;2023-05-23T02:49:51;96381.22;;;15.77;94.04
23229;BME280;11783;50.350;6.576;2023-05-23T02:52:16;96379.63;;;15.75;94.21
23229;BME280;11783;50.350;6.576;2023-05-23T02:54:42;96380.44;;;15.71;94.18
23229;BME280;11783;50.350;6.576;2023-05-23T02:57:07;96386.63;;;15.66;94.61
23229;BME280;11783;50.350;6.576;2023-05-23T02:59:32;96379.09;;;15.53;96.55
23229;BME280;11783;50.350;6.576;2023-05-23T03:01:58;96382.59;;;15.49;95.49
23229;BME280;11783;50.350;6.576;2023-05-23T03:04:24;96378.31;;;15.53;95.54
23229;BME280;11783;50.350;6.576;2023-05-23T03:06:50;96381.25;;;15.51;95.27
23229;BME280;11783;50.350;6.576;2023-05-23T03:09:18;96381.50;;;15.55;95.04
23229;BME280;11783;50.350;6.576;2023-05-23T03:11:44;96379.94;;;15.43;95.43
23229;BME280;11783;50.350;6.576;2023-05-23T03:14:10;96384.75;;;15.47;95.04
23229;BME280;11783;50.350;6.576;2023-05-23T03:16:36;96388.75;;;15.49;94.57
23229;BME280;11783;50.350;6.576;2023-05-23T03:19:01;96397.06;;;15.48;94.99
23229;BME280;11783;50.350;6.576;2023-05-23T03:21:27;96385.56;;;15.47;94.89
23229;BME280;11783;50.350;6.576;2023-05-23T03:23:52;96391.97;;;15.41;94.64
23229;BME280;11783;50.350;6.576;2023-05-23T03:26:18;96394.91;;;15.39;94.63
23229;BME280;11783;50.350;6.576;2023-05-23T03:28:43;96405.38;;;15.36;94.90
23229;BME280;11783;50.350;6.576;2023-05-23T03:31:09;96400.28;;;15.34;95.18
23229;BME280;11783;50.350;6.576;2023-05-23T03:33:34;96401.09;;;15.35;94.83
23229;BME280;11783;50.350;6.576;2023-05-23T03:36:00;96408.31;;;15.34;94.78
23229;BME280;11783;50.350;6.576;2023-05-23T03:38:26;96412.59;;;15.30;94.69
23229;BME280;11783;50.350;6.576;2023-05-23T03:40:52;96415.56;;;15.29;94.49
23229;BME280;11783;50.350;6.576;2023-05-23T03:43:18;96415.28;;;15.30;93.67
23229;BME280;11783;50.350;6.576;2023-05-23T03:45:43;96427.06;;;15.29;93.56
23229;BME280;11783;50.350;6.576;2023-05-23T03:48:08;96424.13;;;15.26;93.45
23229;BME280;11783;50.350;6.576;2023-05-23T03:50:34;96424.66;;;15.18;93.57
23229;BME280;11783;50.350;6.576;2023-05-23T03:53:00;96421.16;;;15.17;92.50
23229;BME280;11783;50.350;6.576;2023-05-23T03:55:26;96423.31;;;15.15;92.92
23229;BME280;11783;50.350;6.576;2023-05-23T03:57:51;96432.94;;;15.16;92.88
23229;BME280;11783;50.350;6.576;2023-05-23T04:00:17;96429.47;;;15.15;91.62
23229;BME280;11783;50.350;6.576;2023-05-23T04:02:44;96438.03;;;15.07;92.65
23229;BME280;11783;50.350;6.576;2023-05-23T04:05:11;96434.28;;;15.13;92.45
23229;BME280;11783;50.350;6.576;2023-05-23T04:07:38;96434.53;;;15.17;92.24
23229;BME280;11783;50.350;6.576;2023-05-23T04:10:04;96435.88;;;15.20;91.64
23229;BME280;11783;50.350;6.576;2023-05-23T04:12:29;96438.03;;;15.18;91.33
23229;BME280;11783;50.350;6.576;2023-05-23T04:14:55;96436.16;;;15.13;91.86
23229;BME280;11783;50.350;6.576;2023-05-23T04:17:22;96447.13;;;15.17;91.79
23229;BME280;11783;50.350;6.576;2023-05-23T04:19:51;96436.69;;;15.15;91.47
23229;BME280;11783;50.350;6.576;2023-05-23T04:22:16;96445.00;;;15.13;91.68
23229;BME280;11783;50.350;6.576;2023-05-23T04:24:42;96436.16;;;15.13;91.68
23229;BME280;11783;50.350;6.576;2023-05-23T04:27:07;96440.94;;;15.06;92.82
23229;BME280;11783;50.350;6.576;2023-05-23T04:29:33;96450.31;;;15.03;92.75
23229;BME280;11783;50.350;6.576;2023-05-23T04:32:03;96441.75;;;15.01;92.62
23229;BME280;11783;50.350;6.576;2023-05-23T04:34:30;96437.22;;;15.02;92.89
23229;BME280;11783;50.350;6.576;2023-05-23T04:36:59;96444.16;;;14.98;93.09
23229;BME280;11783;50.350;6.576;2023-05-23T04:39:26;96451.94;;;14.94;93.46
23229;BME280;11783;50.350;6.576;2023-05-23T04:41:51;96437.16;;;14.87;94.20
23229;BME280;11783;50.350;6.576;2023-05-23T04:44:19;96447.59;;;14.83;94.18
23229;BME280;11783;50.350;6.576;2023-05-23T04:46:44;96450.56;;;14.87;93.87
23229;BME280;11783;50.350;6.576;2023-05-23T04:49:10;96448.69;;;14.87;94.20
23229;BME280;11783;50.350;6.576;2023-05-23T04:51:37;96451.91;;;14.89;94.77
23229;BME280;11783;50.350;6.576;2023-05-23T04:54:03;96454.88;;;14.88;94.82
23229;BME280;11783;50.350;6.576;2023-05-23T04:56:28;96453.75;;;14.83;95.30
23229;BME280;11783;50.350;6.576;2023-05-23T04:58:54;96458.56;;;14.81;95.29
23229;BME280;11783;50.350;6.576;2023-05-23T05:01:20;96459.91;;;14.79;96.19
23229;BME280;11783;50.350;6.576;2023-05-23T05:03:48;96463.88;;;14.61;97.50
23229;BME280;11783;50.350;6.576;2023-05-23T05:06:14;96461.44;;;14.54;97.59
23229;BME280;11783;50.350;6.576;2023-05-23T05:08:40;96476.97;;;14.58;97.76
23229;BME280;11783;50.350;6.576;2023-05-23T05:11:06;96472.69;;;14.51;98.48
23229;BME280;11783;50.350;6.576;2023-05-23T05:13:31;96466.78;;;14.54;98.23
23229;BME280;11783;50.350;6.576;2023-05-23T05:15:57;96470.53;;;14.53;98.12
23229;BME280;11783;50.350;6.576;2023-05-23T05:18:24;96472.41;;;14.53;98.17
23229;BME280;11783;50.350;6.576;2023-05-23T05:20:50;96477.75;;;14.53;98.04
23229;BME280;11783;50.350;6.576;2023-05-23T05:23:15;96475.09;;;14.53;97.62
23229;BME280;11783;50.350;6.576;2023-05-23T05:25:41;96474.28;;;14.58;96.65
23229;BME280;11783;50.350;6.576;2023-05-23T05:28:07;96473.22;;;14.59;97.12
23229;BME280;11783;50.350;6.576;2023-05-23T05:30:32;96476.72;;;14.64;95.64
23229;BME280;11783;50.350;6.576;2023-05-23T05:33:02;96479.38;;;14.64;96.76
23229;BME280;11783;50.350;6.576;2023-05-23T05:35:30;96476.19;;;14.62;96.59
23229;BME280;11783;50.350;6.576;2023-05-23T05:37:55;96479.38;;;14.64;96.78
23229;BME280;11783;50.350;6.576;2023-05-23T05:40:21;96482.88;;;14.65;97.18
23229;BME280;11783;50.350;6.576;2023-05-23T05:42:46;96480.19;;;14.65;97.15
23229;BME280;11783;50.350;6.576;2023-05-23T05:45:11;96484.47;;;14.66;97.58
23229;BME280;11783;50.350;6.576;2023-05-23T05:47:37;96473.75;;;14.61;98.45
23229;BME280;11783;50.350;6.576;2023-05-23T05:50:06;96478.03;;;14.62;97.81
23229;BME280;11783;50.350;6.576;2023-05-23T05:52:35;96479.38;;;14.59;98.41
23229;BME280;11783;50.350;6.576;2023-05-23T05:55:05;96481.25;;;14.59;99.10
23229;BME280;11783;50.350;6.576;2023-05-23T05:57:31;96478.03;;;14.57;99.66
23229;BME280;11783;50.350;6.576;2023-05-23T05:59:57;96478.56;;;14.53;99.99
23229;BME280;11783;50.350;6.576;2023-05-23T06:02:23;96487.13;;;14.56;99.67
23229;BME280;11783;50.350;6.576;2023-05-23T06:04:48;96483.94;;;14.59;100.00
23229;BME280;11783;50.350;6.576;2023-05-23T06:07:14;96481.50;;;14.57;100.00
23229;BME280;11783;50.350;6.576;2023-05-23T06:09:39;96478.84;;;14.57;100.00
23229;BME280;11783;50.350;6.576;2023-05-23T06:12:05;96482.06;;;14.59;100.00
23229;BME280;11783;50.350;6.576;2023-05-23T06:14:30;96480.72;;;14.62;100.00
23229;BME280;11783;50.350;6.576;2023-05-23T06:16:56;96484.22;;;14.67;100.00
23229;BME280;11783;50.350;6.576;2023-05-23T06:19:21;96485.81;;;14.63;100.00
23229;BME280;11783;50.350;6.576;2023-05-23T06:21:46;96487.16;;;14.66;100.00
23229;BME280;11783;50.350;6.576;2023-05-23T06:24:12;96495.19;;;14.66;100.00
23229;BME280;11783;50.350;6.576;2023-05-23T06:26:37;96488.75;;;14.67;100.00
23229;BME280;11783;50.350;6.576;2023-05-23T06:29:03;96494.91;;;14.67;100.00
23229;BME280;11783;50.350;6.576;2023-05-23T06:31:28;96492.81;;;14.69;100.00
23229;BME280;11783;50.350;6.576;2023-05-23T06:33:54;96498.69;;;14.71;100.00
23229;BME280;11783;50.350;6.576;2023-05-23T06:36:19;96490.94;;;14.70;100.00
23229;BME280;11783;50.350;6.576;2023-05-23T06:38:46;96499.78;;;14.75;99.78
23229;BME280;11783;50.350;6.576;2023-05-23T06:41:11;96492.28;;;14.77;99.70
23229;BME280;11783;50.350;6.576;2023-05-23T06:43:37;96497.38;;;14.79;99.99
23229;BME280;11783;50.350;6.576;2023-05-23T06:46:03;96492.84;;;14.84;98.85
23229;BME280;11783;50.350;6.576;2023-05-23T06:48:28;96492.28;;;14.82;99.65
23229;BME280;11783;50.350;6.576;2023-05-23T06:50:53;96493.09;;;14.83;99.35
23229;BME280;11783;50.350;6.576;2023-05-23T06:53:19;96490.47;;;14.88;99.24
23229;BME280;11783;50.350;6.576;2023-05-23T06:55:44;96498.19;;;14.84;99.31
23229;BME280;11783;50.350;6.576;2023-05-23T06:58:10;96499.50;;;14.82;100.00
23229;BME280;11783;50.350;6.576;2023-05-23T07:00:35;96496.31;;;14.85;100.00
23229;BME280;11783;50.350;6.576;2023-05-23T07:03:02;96490.69;;;14.87;100.00
23229;BME280;11783;50.350;6.576;2023-05-23T07:05:27;96504.88;;;14.87;99.66
23229;BME280;11783;50.350;6.576;2023-05-23T07:07:53;96501.16;;;14.88;99.71
23229;BME280;11783;50.350;6.576;2023-05-23T07:10:20;96503.84;;;14.93;99.10
23229;BME280;11783;50.350;6.576;2023-05-23T07:12:45;96509.19;;;14.98;99.63
23229;BME280;11783;50.350;6.576;2023-05-23T07:15:11;96509.19;;;15.03;98.00
23229;BME280;11783;50.350;6.576;2023-05-23T07:17:37;96506.81;;;15.07;97.54
23229;BME280;11783;50.350;6.576;2023-05-23T07:20:03;96508.44;;;15.08;98.56
23229;BME280;11783;50.350;6.576;2023-05-23T07:22:29;96514.28;;;15.05;98.37
23229;BME280;11783;50.350;6.576;2023-05-23T07:24:55;96514.03;;;15.01;97.14
23229;BME280;11783;50.350;6.576;2023-05-23T07:27:21;96518.34;;;15.07;96.47
23229;BME280;11783;50.350;6.576;2023-05-23T07:29:46;96516.47;;;15.08;95.94
23229;BME280;11783;50.350;6.576;2023-05-23T07:32:12;96534.94;;;15.09;95.79
23229;BME280;11783;50.350;6.576;2023-05-23T07:34:37;96529.00;;;15.02;96.76
23229;BME280;11783;50.350;6.576;2023-05-23T07:37:03;96527.94;;;15.03;96.81
23229;BME280;11783;50.350;6.576;2023-05-23T07:39:28;96526.88;;;15.04;97.30
23229;BME280;11783;50.350;6.576;2023-05-23T07:41:54;96534.63;;;15.01;97.09
23229;BME280;11783;50.350;6.576;2023-05-23T07:44:19;96538.09;;;15.01;96.91
23229;BME280;11783;50.350;6.576;2023-05-23T07:46:44;96531.41;;;14.94;96.69
23229;BME280;11783;50.350;6.576;2023-05-23T07:49:10;96538.38;;;15.00;96.25
23229;BME280;11783;50.350;6.576;2023-05-23T07:51:35;96541.03;;;14.90;95.87
23229;BME280;11783;50.350;6.576;2023-05-23T07:54:01;96543.16;;;14.88;96.89
23229;BME280;11783;50.350;6.576;2023-05-23T07:56:26;96547.16;;;14.85;96.50
23229;BME280;11783;50.350;6.576;2023-05-23T07:58:52;96545.28;;;14.85;96.29
23229;BME280;11783;50.350;6.576;2023-05-23T08:01:17;96544.19;;;14.81;95.81
23229;BME280;11783;50.350;6.576;2023-05-23T08:03:44;96553.03;;;14.82;96.57
23229;BME280;11783;50.350;6.576;2023-05-23T08:06:09;96553.63;;;14.89;96.70
23229;BME280;11783;50.350;6.576;2023-05-23T08:08:35;96547.69;;;14.82;96.08
23229;BME280;11783;50.350;6.576;2023-05-23T08:11:02;96555.47;;;14.89;95.50
23229;BME280;11783;50.350;6.576;2023-05-23T08:13:27;96558.41;;;14.87;96.01
23229;BME280;11783;50.350;6.576;2023-05-23T08:15:53;96552.53;;;14.90;95.34
23229;BME280;11783;50.350;6.576;2023-05-23T08:18:18;96557.38;;;14.93;96.45
23229;BME280;11783;50.350;6.576;2023-05-23T08:20:44;96557.63;;;14.92;96.19
23229;BME280;11783;50.350;6.576;2023-05-23T08:23:09;96561.63;;;14.89;96.48
23229;BME280;11783;50.350;6.576;2023-05-23T08:25:37;96570.47;;;14.95;95.33
23229;BME280;11783;50.350;6.576;2023-05-23T08:28:02;96560.03;;;14.93;94.93
23229;BME280;11783;50.350;6.576;2023-05-23T08:30:28;96567.81;;;14.95;95.74
23229;BME280;11783;50.350;6.576;2023-05-23T08:32:54;96572.63;;;14.93;94.43
23229;BME280;11783;50.350;6.576;2023-05-23T08:35:21;96568.88;;;14.94;94.10
23229;BME280;11783;50.350;6.576;2023-05-23T08:37:47;96572.03;;;14.85;95.25
23229;BME280;11783;50.350;6.576;2023-05-23T08:40:19;96571.81;;;14.92;95.00
23229;BME280;11783;50.350;6.576;2023-05-23T08:42:46;96572.88;;;14.91;94.99
23229;BME280;11783;50.350;6.576;2023-05-23T08:45:12;96576.38;;;14.92;94.30
23229;BME280;11783;50.350;6.576;2023-05-23T08:47:41;96577.16;;;14.92;94.09
23229;BME280;11783;50.350;6.576;2023-05-23T08:50:07;96581.19;;;14.90;94.92
23229;BME280;11783;50.350;6.576;2023-05-23T08:52:36;96581.19;;;14.90;95.13
23229;BME280;11783;50.350;6.576;2023-05-23T08:55:10;96579.56;;;14.89;94.75
23229;BME280;11783;50.350;6.576;2023-05-23T08:57:37;96587.81;;;14.87;94.24
23229;BME280;11783;50.350;6.576;2023-05-23T09:00:04;96585.41;;;14.85;95.83
23229;BME280;11783;50.350;6.576;2023-05-23T09:02:36;96583.03;;;14.89;96.90
23229;BME280;11783;50.350;6.576;2023-05-23T09:05:01;96578.47;;;14.84;98.23
23229;BME280;11783;50.350;6.576;2023-05-23T09:07:28;96581.66;;;14.87;98.35
23229;BME280;11783;50.350;6.576;2023-05-23T09:09:53;96580.66;;;14.93;98.93
23229;BME280;11783;50.350;6.576;2023-05-23T09:12:19;96582.78;;;14.91;97.92
23229;BME280;11783;50.350;6.576;2023-05-23T09:14:46;96579.84;;;14.97;98.63
23229;BME280;11783;50.350;6.576;2023-05-23T09:17:17;96583.38;;;15.08;98.20
23229;BME280;11783;50.350;6.576;2023-05-23T09:19:43;96570.53;;;15.15;95.72
23229;BME280;11783;50.350;6.576;2023-05-23T09:22:08;96577.25;;;15.18;95.79
23229;BME280;11783;50.350;6.576;2023-05-23T09:24:34;96579.66;;;15.19;94.59
23229;BME280;11783;50.350;6.576;2023-05-23T09:27:01;96595.72;;;15.24;92.71
23229;BME280;11783;50.350;6.576;2023-05-23T09:29:27;96583.88;;;15.05;94.08
23229;BME280;11783;50.350;6.576;2023-05-23T09:31:58;96589.28;;;15.10;92.37
23229;BME280;11783;50.350;6.576;2023-05-23T09:34:24;96597.06;;;15.17;92.06
23229;BME280;11783;50.350;6.576;2023-05-23T09:36:54;96593.63;;;15.26;92.81
23229;BME280;11783;50.350;6.576;2023-05-23T09:39:19;96597.34;;;15.20;94.37
23229;BME280;11783;50.350;6.576;2023-05-23T09:41:47;96597.84;;;15.17;94.83
23229;BME280;11783;50.350;6.576;2023-05-23T09:44:13;96599.72;;;15.17;95.79
23229;BME280;11783;50.350;6.576;2023-05-23T09:46:38;96598.66;;;15.23;94.57
23229;BME280;11783;50.350;6.576;2023-05-23T09:49:14;96597.09;;;15.32;93.50
23229;BME280;11783;50.350;6.576;2023-05-23T09:51:41;96599.78;;;15.32;92.55
23229;BME280;11783;50.350;6.576;2023-05-23T09:54:08;96601.13;;;15.34;94.45
23229;BME280;11783;50.350;6.576;2023-05-23T09:56:36;96592.28;;;15.39;94.00
23229;BME280;11783;50.350;6.576;2023-05-23T09:59:07;96599.78;;;15.42;93.47
23229;BME280;11783;50.350;6.576;2023-05-23T10:01:33;96595.81;;;15.44;93.62
23229;BME280;11783;50.350;6.576;2023-05-23T10:03:59;96602.50;;;15.52;93.82
23229;BME280;11783;50.350;6.576;2023-05-23T10:06:36;96599.31;;;15.60;93.74
23229;BME280;11783;50.350;6.576;2023-05-23T10:09:05;96604.72;;;15.65;92.40
23229;BME280;11783;50.350;6.576;2023-05-23T10:13:59;96592.38;;;15.80;93.11
23229;BME280;11783;50.350;6.576;2023-05-23T10:19:22;96600.97;;;15.92;89.52
23229;BME280;11783;50.350;6.576;2023-05-23T10:21:51;96596.16;;;15.94;89.00
23229;BME280;11783;50.350;6.576;2023-05-23T10:24:17;96604.19;;;15.94;88.74
23229;BME280;11783;50.350;6.576;2023-05-23T10:26:44;96613.56;;;15.96;90.28
23229;BME280;11783;50.350;6.576;2023-05-23T10:29:09;96619.75;;;15.97;90.88
23229;BME280;11783;50.350;6.576;2023-05-23T10:31:35;96620.56;;;16.02;91.24
23229;BME280;11783;50.350;6.576;2023-05-23T10:34:36;96609.03;;;16.07;91.96
23229;BME280;11783;50.350;6.576;2023-05-23T10:37:06;96604.19;;;16.09;90.58
23229;BME280;11783;50.350;6.576;2023-05-23T10:39:56;96604.72;;;16.16;90.22
23229;BME280;11783;50.350;6.576;2023-05-23T10:45:14;96609.56;;;16.24;87.23
23229;BME280;11783;50.350;6.576;2023-05-23T10:47:40;96605.81;;;16.25;86.53
23229;BME280;11783;50.350;6.576;2023-05-23T10:50:06;96620.84;;;16.21;86.53
23229;BME280;11783;50.350;6.576;2023-05-23T10:52:39;96621.63;;;16.22;86.65
23229;BME280;11783;50.350;6.576;2023-05-23T10:55:12;96636.38;;;16.09;88.40
23229;BME280;11783;50.350;6.576;2023-05-23T10:57:39;96630.75;;;16.11;88.19
23229;BME280;11783;50.350;6.576;2023-05-23T11:00:14;96624.28;;;16.17;88.78
23229;BME280;11783;50.350;6.576;2023-05-23T11:02:52;96618.13;;;16.16;88.89
23229;BME280;11783;50.350;6.576;2023-05-23T11:08:12;96629.94;;;16.25;87.11
23229;BME280;11783;50.350;6.576;2023-05-23T11:13:21;96649.25;;;16.22;87.08
23229;BME280;11783;50.350;6.576;2023-05-23T11:15:48;96652.19;;;16.11;86.79
23229;BME280;11783;50.350;6.576;2023-05-23T11:18:25;96656.47;;;16.12;86.54
23229;BME280;11783;50.350;6.576;2023-05-23T11:20:52;96649.25;;;16.02;88.65
23229;BME280;11783;50.350;6.576;2023-05-23T11:23:19;96644.69;;;16.02;88.60
23229;BME280;11783;50.350;6.576;2023-05-23T11:25:49;96649.25;;;16.02;88.13
23229;BME280;11783;50.350;6.576;2023-05-23T11:28:16;96647.66;;;16.01;88.01
23229;BME280;11783;50.350;6.576;2023-05-23T11:30:42;96641.19;;;15.97;88.17
23229;BME280;11783;50.350;6.576;2023-05-23T11:33:09;96643.88;;;15.97;88.49
23229;BME280;11783;50.350;6.576;2023-05-23T11:35:39;96641.75;;;16.04;90.52
23229;BME280;11783;50.350;6.576;2023-05-23T11:38:04;96644.16;;;16.05;89.87
23229;BME280;11783;50.350;6.576;2023-05-23T11:40:41;96643.88;;;16.17;90.41
23229;BME280;11783;50.350;6.576;2023-05-23T11:43:13;96635.84;;;16.27;88.53
23229;BME280;11783;50.350;6.576;2023-05-23T11:45:39;96645.50;;;16.39;86.45
23229;BME280;11783;50.350;6.576;2023-05-23T11:50:52;96630.44;;;16.58;84.26
23229;BME280;11783;50.350;6.576;2023-05-23T11:53:19;96630.44;;;16.78;88.03
23229;BME280;11783;50.350;6.576;2023-05-23T11:56:00;96629.81;;;17.02;85.73
23229;BME280;11783;50.350;6.576;2023-05-23T11:58:32;96627.38;;;17.10;81.11
23229;BME280;11783;50.350;6.576;2023-05-23T12:01:05;96640.53;;;17.07;78.07
23229;BME280;11783;50.350;6.576;2023-05-23T12:03:33;96640.78;;;17.15;80.65
23229;BME280;11783;50.350;6.576;2023-05-23T12:05:59;96642.06;;;17.33;82.98
23229;BME280;11783;50.350;6.576;2023-05-23T12:08:26;96646.28;;;17.49;75.12
23229;BME280;11783;50.350;6.576;2023-05-23T12:10:52;96645.41;;;17.59;77.81
23229;BME280;11783;50.350;6.576;2023-05-23T12:13:19;96655.59;;;17.72;75.32
23229;BME280;11783;50.350;6.576;2023-05-23T12:15:44;96645.03;;;17.86;74.19
23229;BME280;11783;50.350;6.576;2023-05-23T12:18:11;96646.09;;;17.90;72.74
23229;BME280;11783;50.350;6.576;2023-05-23T12:20:37;96648.81;;;17.85;72.31
23229;BME280;11783;50.350;6.576;2023-05-23T12:23:05;96648.25;;;17.88;71.83
23229;BME280;11783;50.350;6.576;2023-05-23T12:25:53;96656.31;;;17.88;72.02
23229;BME280;11783;50.350;6.576;2023-05-23T12:28:37;96656.88;;;17.85;72.39
23229;BME280;11783;50.350;6.576;2023-05-23T12:33:41;96668.97;;;17.88;71.49
23229;BME280;11783;50.350;6.576;2023-05-23T12:36:11;96663.56;;;17.88;71.72
23229;BME280;11783;50.350;6.576;2023-05-23T12:38:37;96673.25;;;17.89;68.95
23229;BME280;11783;50.350;6.576;2023-05-23T12:41:10;96671.94;;;17.86;71.46
23229;BME280;11783;50.350;6.576;2023-05-23T12:43:39;96677.81;;;17.88;68.72
23229;BME280;11783;50.350;6.576;2023-05-23T12:46:06;96682.94;;;17.84;68.96
23229;BME280;11783;50.350;6.576;2023-05-23T12:48:32;96672.22;;;17.79;70.15
23229;BME280;11783;50.350;6.576;2023-05-23T12:50:58;96684.00;;;17.83;67.60
23229;BME280;11783;50.350;6.576;2023-05-23T12:53:25;96677.34;;;17.76;67.92
23229;BME280;11783;50.350;6.576;2023-05-23T12:55:51;96684.97;;;17.53;66.28
23229;BME280;11783;50.350;6.576;2023-05-23T12:58:16;96677.19;;;17.52;68.49
23229;BME280;11783;50.350;6.576;2023-05-23T13:00:42;96671.81;;;17.52;68.65
23229;BME280;11783;50.350;6.576;2023-05-23T13:03:07;96672.91;;;17.41;65.39
23229;BME280;11783;50.350;6.576;2023-05-23T13:05:33;96672.34;;;17.44;68.32
23229;BME280;11783;50.350;6.576;2023-05-23T13:07:58;96672.63;;;17.42;68.15
23229;BME280;11783;50.350;6.576;2023-05-23T13:10:24;96673.16;;;17.44;68.65
23229;BME280;11783;50.350;6.576;2023-05-23T13:12:49;96666.72;;;17.50;69.71
23229;BME280;11783;50.350;6.576;2023-05-23T13:15:16;96674.47;;;17.57;68.64
23229;BME280;11783;50.350;6.576;2023-05-23T13:17:41;96675.31;;;17.42;67.34
23229;BME280;11783;50.350;6.576;2023-05-23T13:20:07;96686.06;;;17.42;66.22
23229;BME280;11783;50.350;6.576;2023-05-23T13:22:33;96681.84;;;17.31;67.97
23229;BME280;11783;50.350;6.576;2023-05-23T13:24:59;96682.34;;;17.28;67.84
23229;BME280;11783;50.350;6.576;2023-05-23T13:27:24;96683.16;;;17.29;68.07
23229;BME280;11783;50.350;6.576;2023-05-23T13:29:50;96681.84;;;17.26;68.85